sensor_id;sensor_type;location;lat;lon;timestamp;pressure;altitude;pressure_sealevel;temperature;humidity
54556;BME280;57291;37.520;15.106;2023-12-28T00:00:41;102475.22;;;13.51;90.19
54556;BME280;57291;37.520;15.106;2023-12-28T00:03:08;102474.09;;;13.31;90.65
54556;BME280;57291;37.520;15.106;2023-12-28T00:05:36;102474.63;;;13.23;91.20
54556;BME280;57291;37.520;15.106;2023-12-28T00:08:04;102475.97;;;13.21;91.81
54556;BME280;57291;37.520;15.106;2023-12-28T00:10:31;102476.22;;;13.19;92.03
54556;BME280;57291;37.520;15.106;2023-12-28T00:12:58;102477.59;;;13.11;91.82
54556;BME280;57291;37.520;15.106;2023-12-28T00:15:26;102486.06;;;13.15;92.10
54556;BME280;57291;37.520;15.106;2023-12-28T00:17:53;102478.44;;;13.22;92.20
54556;BME280;57291;37.520;15.106;2023-12-28T00:20:21;102485.31;;;13.30;92.17
54556;BME280;57291;37.520;15.106;2023-12-28T00:22:48;102489.69;;;13.36;92.21
54556;BME280;57291;37.520;15.106;2023-12-28T00:25:15;102488.59;;;13.42;91.91
54556;BME280;57291;37.520;15.106;2023-12-28T00:27:43;102494.06;;;13.47;91.65
54556;BME280;57291;37.520;15.106;2023-12-28T00:30:13;102494.34;;;13.51;91.48
54556;BME280;57291;37.520;15.106;2023-12-28T00:32:43;102497.38;;;13.49;91.69
54556;BME280;57291;37.520;15.106;2023-12-28T00:35:11;102499.78;;;13.46;92.13
54556;BME280;57291;37.520;15.106;2023-12-28T00:37:38;102502.25;;;13.47;92.83
54556;BME280;57291;37.520;15.106;2023-12-28T00:40:07;102493.78;;;13.44;93.15
54556;BME280;57291;37.520;15.106;2023-12-28T00:42:34;102501.72;;;13.40;93.34
54556;BME280;57291;37.520;15.106;2023-12-28T00:45:01;102501.69;;;13.35;93.78
54556;BME280;57291;37.520;15.106;2023-12-28T00:47:30;102500.88;;;13.34;93.99
54556;BME280;57291;37.520;15.106;2023-12-28T00:49:58;102498.16;;;13.34;94.38
54556;BME280;57291;37.520;15.106;2023-12-28T00:52:26;102510.16;;;13.38;94.29
54556;BME280;57291;37.520;15.106;2023-12-28T00:54:54;102515.09;;;13.42;94.17
54556;BME280;57291;37.520;15.106;2023-12-28T00:57:22;102508.84;;;13.46;93.98
54556;BME280;57291;37.520;15.106;2023-12-28T00:59:50;102506.09;;;13.51;93.64
54556;BME280;57291;37.520;15.106;2023-12-28T01:02:17;102521.41;;;13.57;93.25
54556;BME280;57291;37.520;15.106;2023-12-28T01:04:44;102515.66;;;13.64;91.75
54556;BME280;57291;37.520;15.106;2023-12-28T01:07:12;102516.75;;;13.63;91.15
54556;BME280;57291;37.520;15.106;2023-12-28T01:09:39;102514.84;;;13.64;90.94
54556;BME280;57291;37.520;15.106;2023-12-28T01:12:07;102508.84;;;13.67;90.52
54556;BME280;57291;37.520;15.106;2023-12-28T01:14:34;102513.50;;;13.66;90.18
54556;BME280;57291;37.520;15.106;2023-12-28T01:17:02;102511.81;;;13.65;90.14
54556;BME280;57291;37.520;15.106;2023-12-28T01:19:30;102513.50;;;13.66;90.27
54556;BME280;57291;37.520;15.106;2023-12-28T01:21:57;102512.09;;;13.69;90.28
54556;BME280;57291;37.520;15.106;2023-12-28T01:24:24;102511.56;;;13.67;90.14
54556;BME280;57291;37.520;15.106;2023-12-28T01:26:53;102509.13;;;13.70;89.74
54556;BME280;57291;37.520;15.106;2023-12-28T01:29:21;102510.22;;;13.69;89.09
54556;BME280;57291;37.520;15.106;2023-12-28T01:31:49;102515.94;;;13.73;88.58
54556;BME280;57291;37.520;15.106;2023-12-28T01:34:16;102505.84;;;13.73;88.17
54556;BME280;57291;37.520;15.106;2023-12-28T01:36:45;102502.81;;;13.75;87.05
54556;BME280;57291;37.520;15.106;2023-12-28T01:39:12;102505.28;;;13.76;86.61
54556;BME280;57291;37.520;15.106;2023-12-28T01:41:39;102497.09;;;13.76;86.30
54556;BME280;57291;37.520;15.106;2023-12-28T01:44:07;102495.44;;;13.80;85.45
54556;BME280;57291;37.520;15.106;2023-12-28T01:46:35;102499.00;;;13.81;85.21
54556;BME280;57291;37.520;15.106;2023-12-28T01:49:03;102505.84;;;13.83;85.00
54556;BME280;57291;37.520;15.106;2023-12-28T01:51:32;102495.47;;;13.86;83.94
54556;BME280;57291;37.520;15.106;2023-12-28T01:54:02;102505.84;;;13.89;82.98
54556;BME280;57291;37.520;15.106;2023-12-28T01:56:29;102499.81;;;13.87;82.49
54556;BME280;57291;37.520;15.106;2023-12-28T01:58:58;102507.47;;;13.84;82.41
54556;BME280;57291;37.520;15.106;2023-12-28T02:01:26;102505.28;;;13.87;82.18
54556;BME280;57291;37.520;15.106;2023-12-28T02:03:55;102503.09;;;13.83;82.19
54556;BME280;57291;37.520;15.106;2023-12-28T02:06:24;102501.19;;;13.84;81.26
54556;BME280;57291;37.520;15.106;2023-12-28T02:08:52;102493.25;;;13.88;80.34
54556;BME280;57291;37.520;15.106;2023-12-28T02:11:21;102493.25;;;13.88;79.54
54556;BME280;57291;37.520;15.106;2023-12-28T02:13:48;102499.25;;;13.95;79.28
54556;BME280;57291;37.520;15.106;2023-12-28T02:16:33;102500.66;;;13.92;79.12
54556;BME280;57291;37.520;15.106;2023-12-28T02:22:14;102498.19;;;13.80;80.22
54556;BME280;57291;37.520;15.106;2023-12-28T02:27:36;102497.91;;;13.77;79.69
54556;BME280;57291;37.520;15.106;2023-12-28T02:30:09;102499.56;;;13.73;79.69
54556;BME280;57291;37.520;15.106;2023-12-28T02:35:40;102498.72;;;13.67;80.21
54556;BME280;57291;37.520;15.106;2023-12-28T02:38:11;102491.09;;;13.59;80.69
54556;BME280;57291;37.520;15.106;2023-12-28T02:40:40;102492.44;;;13.56;80.74
54556;BME280;57291;37.520;15.106;2023-12-28T02:43:08;102498.16;;;13.55;80.98
54556;BME280;57291;37.520;15.106;2023-12-28T02:45:37;102495.16;;;13.51;81.05
54556;BME280;57291;37.520;15.106;2023-12-28T02:48:07;102501.97;;;13.49;80.98
54556;BME280;57291;37.520;15.106;2023-12-28T02:50:35;102498.44;;;13.48;81.58
54556;BME280;57291;37.520;15.106;2023-12-28T02:53:03;102498.72;;;13.47;81.61
54556;BME280;57291;37.520;15.106;2023-12-28T02:55:31;102500.34;;;13.43;81.88
54556;BME280;57291;37.520;15.106;2023-12-28T02:57:58;102497.34;;;13.44;81.71
54556;BME280;57291;37.520;15.106;2023-12-28T03:00:29;102489.97;;;13.45;81.40
54556;BME280;57291;37.520;15.106;2023-12-28T03:02:57;102486.97;;;13.41;81.58
54556;BME280;57291;37.520;15.106;2023-12-28T03:05:24;102485.59;;;13.38;81.89
54556;BME280;57291;37.520;15.106;2023-12-28T03:07:52;102489.97;;;13.40;81.72
54556;BME280;57291;37.520;15.106;2023-12-28T03:10:19;102485.59;;;13.38;82.09
54556;BME280;57291;37.520;15.106;2023-12-28T03:12:46;102476.84;;;13.42;81.79
54556;BME280;57291;37.520;15.106;2023-12-28T03:15:16;102483.13;;;13.42;81.76
54556;BME280;57291;37.520;15.106;2023-12-28T03:17:44;102477.41;;;13.44;81.23
54556;BME280;57291;37.520;15.106;2023-12-28T03:20:11;102486.97;;;13.46;80.79
54556;BME280;57291;37.520;15.106;2023-12-28T03:22:39;102483.97;;;13.48;80.70
54556;BME280;57291;37.520;15.106;2023-12-28T03:25:08;102476.31;;;13.45;80.67
54556;BME280;57291;37.520;15.106;2023-12-28T03:27:35;102486.16;;;13.41;80.58
54556;BME280;57291;37.520;15.106;2023-12-28T03:30:03;102490.50;;;13.42;80.68
54556;BME280;57291;37.520;15.106;2023-12-28T03:32:31;102490.50;;;13.42;80.35
54556;BME280;57291;37.520;15.106;2023-12-28T03:34:58;102485.34;;;13.40;80.12
54556;BME280;57291;37.520;15.106;2023-12-28T03:37:26;102494.34;;;13.41;79.89
54556;BME280;57291;37.520;15.106;2023-12-28T03:39:53;102493.53;;;13.40;80.10
54556;BME280;57291;37.520;15.106;2023-12-28T03:42:21;102497.31;;;13.39;79.84
54556;BME280;57291;37.520;15.106;2023-12-28T03:44:49;102501.44;;;13.42;79.82
54556;BME280;57291;37.520;15.106;2023-12-28T03:47:17;102499.25;;;13.44;79.72
54556;BME280;57291;37.520;15.106;2023-12-28T03:49:44;102502.00;;;13.44;79.79
54556;BME280;57291;37.520;15.106;2023-12-28T03:52:12;102499.50;;;13.42;79.96
54556;BME280;57291;37.520;15.106;2023-12-28T03:54:40;102503.34;;;13.36;80.07
54556;BME280;57291;37.520;15.106;2023-12-28T03:57:07;102497.59;;;13.37;80.17
54556;BME280;57291;37.520;15.106;2023-12-28T03:59:35;102503.59;;;13.34;80.39
54556;BME280;57291;37.520;15.106;2023-12-28T04:02:02;102502.50;;;13.35;80.62
54556;BME280;57291;37.520;15.106;2023-12-28T04:04:30;102496.22;;;13.35;80.78
54556;BME280;57291;37.520;15.106;2023-12-28T04:06:57;102503.91;;;13.33;80.92
54556;BME280;57291;37.520;15.106;2023-12-28T04:09:25;102498.69;;;13.31;80.97
54556;BME280;57291;37.520;15.106;2023-12-28T04:11:52;102500.03;;;13.29;80.89
54556;BME280;57291;37.520;15.106;2023-12-28T04:14:20;102501.41;;;13.31;80.67
54556;BME280;57291;37.520;15.106;2023-12-28T04:16:47;102509.09;;;13.29;80.63
54556;BME280;57291;37.520;15.106;2023-12-28T04:19:14;102500.88;;;13.24;80.38
54556;BME280;57291;37.520;15.106;2023-12-28T04:21:47;102504.91;;;13.22;80.32
54556;BME280;57291;37.520;15.106;2023-12-28T04:24:14;102506.84;;;13.21;80.52
54556;BME280;57291;37.520;15.106;2023-12-28T04:26:42;102506.00;;;13.21;80.10
54556;BME280;57291;37.520;15.106;2023-12-28T04:29:10;102517.75;;;13.21;79.85
54556;BME280;57291;37.520;15.106;2023-12-28T04:31:41;102504.63;;;13.18;79.67
54556;BME280;57291;37.520;15.106;2023-12-28T04:34:12;102514.47;;;13.19;79.07
54556;BME280;57291;37.520;15.106;2023-12-28T04:36:41;102516.13;;;13.20;78.95
54556;BME280;57291;37.520;15.106;2023-12-28T04:39:09;102518.28;;;13.18;78.77
54556;BME280;57291;37.520;15.106;2023-12-28T04:41:36;102518.56;;;13.22;78.64
54556;BME280;57291;37.520;15.106;2023-12-28T04:44:04;102528.41;;;13.23;78.39
54556;BME280;57291;37.520;15.106;2023-12-28T04:46:32;102530.84;;;13.19;78.33
54556;BME280;57291;37.520;15.106;2023-12-28T04:48:59;102537.97;;;13.20;78.63
54556;BME280;57291;37.520;15.106;2023-12-28T04:51:26;102538.50;;;13.17;78.70
54556;BME280;57291;37.520;15.106;2023-12-28T04:53:54;102542.03;;;13.18;78.43
54556;BME280;57291;37.520;15.106;2023-12-28T04:56:21;102543.97;;;13.17;78.28
54556;BME280;57291;37.520;15.106;2023-12-28T04:58:49;102541.47;;;13.15;78.11
54556;BME280;57291;37.520;15.106;2023-12-28T05:01:17;102537.66;;;13.11;77.69
54556;BME280;57291;37.520;15.106;2023-12-28T05:03:47;102538.47;;;13.12;77.49
54556;BME280;57291;37.520;15.106;2023-12-28T05:06:14;102544.22;;;13.10;77.29
54556;BME280;57291;37.520;15.106;2023-12-28T05:08:44;102540.66;;;13.10;77.08
54556;BME280;57291;37.520;15.106;2023-12-28T05:11:12;102527.25;;;13.08;76.85
54556;BME280;57291;37.520;15.106;2023-12-28T05:13:40;102528.09;;;13.09;76.84
54556;BME280;57291;37.520;15.106;2023-12-28T05:16:07;102542.53;;;13.04;76.69
54556;BME280;57291;37.520;15.106;2023-12-28T05:18:35;102532.44;;;13.00;76.78
54556;BME280;57291;37.520;15.106;2023-12-28T05:21:02;102540.31;;;12.96;77.08
54556;BME280;57291;37.520;15.106;2023-12-28T05:23:30;102537.84;;;12.89;77.14
54556;BME280;57291;37.520;15.106;2023-12-28T05:25:57;102540.31;;;12.91;76.82
54556;BME280;57291;37.520;15.106;2023-12-28T05:28:25;102542.47;;;12.89;77.05
54556;BME280;57291;37.520;15.106;2023-12-28T05:30:52;102548.75;;;12.89;77.05
54556;BME280;57291;37.520;15.106;2023-12-28T05:33:20;102546.31;;;12.88;77.02
54556;BME280;57291;37.520;15.106;2023-12-28T05:35:48;102543.28;;;12.89;76.64
54556;BME280;57291;37.520;15.106;2023-12-28T05:38:15;102537.03;;;12.89;76.27
54556;BME280;57291;37.520;15.106;2023-12-28T05:40:43;102548.22;;;12.93;75.96
54556;BME280;57291;37.520;15.106;2023-12-28T05:43:11;102557.22;;;12.93;75.75
54556;BME280;57291;37.520;15.106;2023-12-28T05:45:39;102559.94;;;12.93;75.78
54556;BME280;57291;37.520;15.106;2023-12-28T05:48:06;102551.22;;;12.91;75.71
54556;BME280;57291;37.520;15.106;2023-12-28T05:50:34;102545.72;;;12.86;75.90
54556;BME280;57291;37.520;15.106;2023-12-28T05:53:05;102553.09;;;12.85;76.14
54556;BME280;57291;37.520;15.106;2023-12-28T05:55:32;102556.41;;;12.87;76.01
54556;BME280;57291;37.520;15.106;2023-12-28T05:57:59;102555.28;;;12.83;76.03
54556;BME280;57291;37.520;15.106;2023-12-28T06:00:27;102558.56;;;12.85;76.01
54556;BME280;57291;37.520;15.106;2023-12-28T06:02:55;102558.56;;;12.80;76.14
54556;BME280;57291;37.520;15.106;2023-12-28T06:05:22;102550.91;;;12.77;76.04
54556;BME280;57291;37.520;15.106;2023-12-28T06:07:49;102555.53;;;12.77;76.18
54556;BME280;57291;37.520;15.106;2023-12-28T06:10:17;102554.16;;;12.74;76.04
54556;BME280;57291;37.520;15.106;2023-12-28T06:12:44;102562.88;;;12.76;75.94
54556;BME280;57291;37.520;15.106;2023-12-28T06:15:12;102563.41;;;12.73;75.87
54556;BME280;57291;37.520;15.106;2023-12-28T06:17:39;102558.50;;;12.70;76.05
54556;BME280;57291;37.520;15.106;2023-12-28T06:20:07;102566.13;;;12.68;75.89
54556;BME280;57291;37.520;15.106;2023-12-28T06:22:38;102561.75;;;12.67;76.33
54556;BME280;57291;37.520;15.106;2023-12-28T06:25:06;102558.47;;;12.65;76.29
54556;BME280;57291;37.520;15.106;2023-12-28T06:27:33;102554.66;;;12.66;76.35
54556;BME280;57291;37.520;15.106;2023-12-28T06:30:01;102564.75;;;12.65;76.62
54556;BME280;57291;37.520;15.106;2023-12-28T06:32:28;102557.91;;;12.63;76.85
54556;BME280;57291;37.520;15.106;2023-12-28T06:34:57;102560.38;;;12.64;76.74
54556;BME280;57291;37.520;15.106;2023-12-28T06:37:24;102566.91;;;12.63;77.00
54556;BME280;57291;37.520;15.106;2023-12-28T06:39:54;102570.19;;;12.65;76.69
54556;BME280;57291;37.520;15.106;2023-12-28T06:42:22;102574.84;;;12.65;76.64
54556;BME280;57291;37.520;15.106;2023-12-28T06:44:49;102575.13;;;12.68;76.43
54556;BME280;57291;37.520;15.106;2023-12-28T06:47:17;102579.22;;;12.71;76.36
54556;BME280;57291;37.520;15.106;2023-12-28T06:49:44;102582.50;;;12.73;76.24
54556;BME280;57291;37.520;15.106;2023-12-28T06:52:11;102584.19;;;12.79;75.91
54556;BME280;57291;37.520;15.106;2023-12-28T06:54:39;102586.38;;;12.82;75.71
54556;BME280;57291;37.520;15.106;2023-12-28T06:57:06;102580.41;;;12.85;75.53
54556;BME280;57291;37.520;15.106;2023-12-28T06:59:33;102580.41;;;12.85;75.34
54556;BME280;57291;37.520;15.106;2023-12-28T07:02:01;102589.16;;;12.87;75.50
54556;BME280;57291;37.520;15.106;2023-12-28T07:04:28;102585.31;;;12.88;75.53
54556;BME280;57291;37.520;15.106;2023-12-28T07:06:56;102591.06;;;12.92;75.68
54556;BME280;57291;37.520;15.106;2023-12-28T07:09:24;102595.72;;;12.91;75.72
54556;BME280;57291;37.520;15.106;2023-12-28T07:11:51;102592.41;;;12.89;75.86
54556;BME280;57291;37.520;15.106;2023-12-28T07:14:19;102593.50;;;12.88;75.80
54556;BME280;57291;37.520;15.106;2023-12-28T07:16:46;102604.69;;;12.87;76.24
54556;BME280;57291;37.520;15.106;2023-12-28T07:19:14;102611.50;;;12.89;76.18
54556;BME280;57291;37.520;15.106;2023-12-28T07:21:41;102612.38;;;12.90;76.28
54556;BME280;57291;37.520;15.106;2023-12-28T07:24:09;102613.19;;;12.90;76.30
54556;BME280;57291;37.520;15.106;2023-12-28T07:26:36;102618.41;;;12.97;75.72
54556;BME280;57291;37.520;15.106;2023-12-28T07:29:04;102621.94;;;13.03;75.59
54556;BME280;57291;37.520;15.106;2023-12-28T07:31:31;102621.19;;;13.07;75.64
54556;BME280;57291;37.520;15.106;2023-12-28T07:33:59;102624.19;;;13.16;75.76
54556;BME280;57291;37.520;15.106;2023-12-28T07:36:27;102620.69;;;13.21;75.40
54556;BME280;57291;37.520;15.106;2023-12-28T07:38:54;102623.72;;;13.24;74.99
54556;BME280;57291;37.520;15.106;2023-12-28T07:41:21;102623.19;;;13.32;74.81
54556;BME280;57291;37.520;15.106;2023-12-28T07:43:49;102629.78;;;13.42;74.75
54556;BME280;57291;37.520;15.106;2023-12-28T07:46:16;102632.84;;;13.55;74.38
54556;BME280;57291;37.520;15.106;2023-12-28T07:48:43;102631.50;;;13.58;73.68
54556;BME280;57291;37.520;15.106;2023-12-28T07:51:13;102633.72;;;13.66;72.96
54556;BME280;57291;37.520;15.106;2023-12-28T07:53:40;102631.78;;;13.72;72.21
54556;BME280;57291;37.520;15.106;2023-12-28T07:56:08;102634.53;;;13.77;71.95
54556;BME280;57291;37.520;15.106;2023-12-28T08:01:13;102626.38;;;13.92;70.26
54556;BME280;57291;37.520;15.106;2023-12-28T08:03:40;102626.09;;;14.04;68.89
54556;BME280;57291;37.520;15.106;2023-12-28T08:06:08;102630.22;;;14.12;68.65
54556;BME280;57291;37.520;15.106;2023-12-28T08:08:35;102632.66;;;14.23;68.73
54556;BME280;57291;37.520;15.106;2023-12-28T08:11:04;102643.06;;;14.26;67.52
54556;BME280;57291;37.520;15.106;2023-12-28T08:13:32;102642.53;;;14.29;66.83
54556;BME280;57291;37.520;15.106;2023-12-28T08:15:59;102646.09;;;14.25;66.91
54556;BME280;57291;37.520;15.106;2023-12-28T08:18:27;102644.72;;;14.32;67.17
54556;BME280;57291;37.520;15.106;2023-12-28T08:20:54;102640.06;;;14.38;66.14
54556;BME280;57291;37.520;15.106;2023-12-28T08:23:22;102652.91;;;14.48;65.98
54556;BME280;57291;37.520;15.106;2023-12-28T08:25:49;102646.34;;;14.49;65.10
54556;BME280;57291;37.520;15.106;2023-12-28T08:28:16;102645.28;;;14.55;65.51
54556;BME280;57291;37.520;15.106;2023-12-28T08:30:44;102651.53;;;14.61;65.05
54556;BME280;57291;37.520;15.106;2023-12-28T08:33:11;102650.72;;;14.70;65.03
54556;BME280;57291;37.520;15.106;2023-12-28T08:35:39;102651.78;;;14.80;64.89
54556;BME280;57291;37.520;15.106;2023-12-28T08:38:06;102646.31;;;14.80;64.10
54556;BME280;57291;37.520;15.106;2023-12-28T08:40:34;102647.44;;;14.63;64.10
54556;BME280;57291;37.520;15.106;2023-12-28T08:43:02;102635.97;;;14.61;64.50
54556;BME280;57291;37.520;15.106;2023-12-28T08:45:29;102641.44;;;14.66;64.37
54556;BME280;57291;37.520;15.106;2023-12-28T08:48:00;102652.09;;;14.73;64.21
54556;BME280;57291;37.520;15.106;2023-12-28T08:50:28;102650.16;;;14.78;63.57
54556;BME280;57291;37.520;15.106;2023-12-28T08:52:55;102650.44;;;14.87;63.36
54556;BME280;57291;37.520;15.106;2023-12-28T08:55:23;102638.16;;;14.59;63.10
54556;BME280;57291;37.520;15.106;2023-12-28T08:57:51;102641.97;;;14.63;63.77
54556;BME280;57291;37.520;15.106;2023-12-28T09:00:18;102636.78;;;14.57;63.87
54556;BME280;57291;37.520;15.106;2023-12-28T09:02:52;102640.34;;;14.52;63.96
54556;BME280;57291;37.520;15.106;2023-12-28T09:05:19;102642.50;;;14.50;64.10
54556;BME280;57291;37.520;15.106;2023-12-28T09:07:48;102634.31;;;14.50;63.78
54556;BME280;57291;37.520;15.106;2023-12-28T09:10:15;102634.34;;;14.55;63.67
54556;BME280;57291;37.520;15.106;2023-12-28T09:12:43;102633.78;;;14.58;63.86
54556;BME280;57291;37.520;15.106;2023-12-28T09:15:10;102637.06;;;14.60;63.62
54556;BME280;57291;37.520;15.106;2023-12-28T09:17:38;102629.94;;;14.54;63.15
54556;BME280;57291;37.520;15.106;2023-12-28T09:20:07;102632.13;;;14.47;63.46
54556;BME280;57291;37.520;15.106;2023-12-28T09:22:35;102629.41;;;14.42;63.86
54556;BME280;57291;37.520;15.106;2023-12-28T09:25:02;102633.78;;;14.48;63.98
54556;BME280;57291;37.520;15.106;2023-12-28T09:27:31;102628.84;;;14.65;63.34
54556;BME280;57291;37.520;15.106;2023-12-28T09:29:58;102622.25;;;14.76;63.38
54556;BME280;57291;37.520;15.106;2023-12-28T09:32:25;102629.06;;;14.94;62.88
54556;BME280;57291;37.520;15.106;2023-12-28T09:34:53;102631.53;;;14.91;62.34
54556;BME280;57291;37.520;15.106;2023-12-28T09:37:21;102632.06;;;14.93;62.12
54556;BME280;57291;37.520;15.106;2023-12-28T09:39:48;102626.25;;;15.10;62.02
54556;BME280;57291;37.520;15.106;2023-12-28T09:42:40;102628.34;;;15.33;61.07
54556;BME280;57291;37.520;15.106;2023-12-28T09:45:11;102621.44;;;15.46;60.68
54556;BME280;57291;37.520;15.106;2023-12-28T09:47:39;102617.53;;;15.57;60.26
54556;BME280;57291;37.520;15.106;2023-12-28T09:50:06;102619.38;;;15.72;60.13
54556;BME280;57291;37.520;15.106;2023-12-28T09:52:34;102609.69;;;15.90;59.63
54556;BME280;57291;37.520;15.106;2023-12-28T09:55:02;102608.16;;;16.08;58.71
54556;BME280;57291;37.520;15.106;2023-12-28T09:57:29;102609.06;;;15.98;58.00
54556;BME280;57291;37.520;15.106;2023-12-28T09:59:57;102604.91;;;16.06;58.00
54556;BME280;57291;37.520;15.106;2023-12-28T10:02:25;102597.50;;;16.06;57.73
54556;BME280;57291;37.520;15.106;2023-12-28T10:04:52;102606.34;;;16.27;57.81
54556;BME280;57291;37.520;15.106;2023-12-28T10:07:20;102592.63;;;16.27;57.08
54556;BME280;57291;37.520;15.106;2023-12-28T10:09:47;102585.75;;;16.30;57.41
54556;BME280;57291;37.520;15.106;2023-12-28T10:12:15;102573.53;;;16.46;57.04
54556;BME280;57291;37.520;15.106;2023-12-28T10:14:42;102573.00;;;16.44;56.71
54556;BME280;57291;37.520;15.106;2023-12-28T10:17:09;102575.22;;;16.42;57.00
54556;BME280;57291;37.520;15.106;2023-12-28T10:19:37;102570.94;;;16.55;56.57
54556;BME280;57291;37.520;15.106;2023-12-28T10:22:04;102561.97;;;16.49;56.16
54556;BME280;57291;37.520;15.106;2023-12-28T10:24:33;102551.69;;;16.36;56.71
54556;BME280;57291;37.520;15.106;2023-12-28T10:27:01;102545.50;;;16.49;56.38
54556;BME280;57291;37.520;15.106;2023-12-28T10:29:28;102547.56;;;16.62;56.39
54556;BME280;57291;37.520;15.106;2023-12-28T10:31:56;102538.56;;;16.57;55.46
54556;BME280;57291;37.520;15.106;2023-12-28T10:34:24;102534.81;;;16.72;56.16
54556;BME280;57291;37.520;15.106;2023-12-28T10:36:53;102531.69;;;16.83;55.35
54556;BME280;57291;37.520;15.106;2023-12-28T10:39:24;102526.88;;;16.94;55.13
54556;BME280;57291;37.520;15.106;2023-12-28T10:41:55;102515.97;;;16.89;55.47
54556;BME280;57291;37.520;15.106;2023-12-28T10:44:27;102499.25;;;16.85;55.76
54556;BME280;57291;37.520;15.106;2023-12-28T10:46:57;102500.22;;;17.14;55.18
54556;BME280;57291;37.520;15.106;2023-12-28T10:49:30;102485.41;;;17.15;54.64
54556;BME280;57291;37.520;15.106;2023-12-28T10:52:01;102487.69;;;17.07;54.62
54556;BME280;57291;37.520;15.106;2023-12-28T10:57:41;102475.88;;;17.26;54.63
54556;BME280;57291;37.520;15.106;2023-12-28T11:00:23;102478.25;;;17.14;54.76
54556;BME280;57291;37.520;15.106;2023-12-28T11:02:57;102459.72;;;17.05;55.26
54556;BME280;57291;37.520;15.106;2023-12-28T11:05:27;102466.91;;;17.01;55.08
54556;BME280;57291;37.520;15.106;2023-12-28T11:07:57;102463.81;;;17.08;54.80
54556;BME280;57291;37.520;15.106;2023-12-28T11:10:29;102447.38;;;17.22;54.67
54556;BME280;57291;37.520;15.106;2023-12-28T11:12:58;102451.47;;;17.05;55.44
54556;BME280;57291;37.520;15.106;2023-12-28T11:15:27;102451.59;;;17.14;55.00
54556;BME280;57291;37.520;15.106;2023-12-28T11:17:57;102444.94;;;17.01;54.90
54556;BME280;57291;37.520;15.106;2023-12-28T11:20:24;102438.03;;;16.85;55.76
54556;BME280;57291;37.520;15.106;2023-12-28T11:22:52;102443.59;;;16.99;55.56
54556;BME280;57291;37.520;15.106;2023-12-28T11:25:20;102440.09;;;16.93;55.24
54556;BME280;57291;37.520;15.106;2023-12-28T11:27:52;102432.19;;;16.92;55.54
54556;BME280;57291;37.520;15.106;2023-12-28T11:30:21;102431.88;;;16.93;56.20
54556;BME280;57291;37.520;15.106;2023-12-28T11:32:56;102434.34;;;16.95;55.79
54556;BME280;57291;37.520;15.106;2023-12-28T11:35:34;102422.59;;;16.89;56.04
54556;BME280;57291;37.520;15.106;2023-12-28T11:38:03;102421.09;;;16.97;55.85
54556;BME280;57291;37.520;15.106;2023-12-28T11:40:42;102407.38;;;16.97;55.86
54556;BME280;57291;37.520;15.106;2023-12-28T11:43:18;102411.44;;;16.99;55.81
54556;BME280;57291;37.520;15.106;2023-12-28T11:45:54;102413.59;;;17.21;55.64
54556;BME280;57291;37.520;15.106;2023-12-28T11:48:25;102401.94;;;17.10;54.75
54556;BME280;57291;37.520;15.106;2023-12-28T11:50:56;102405.53;;;17.11;55.21
54556;BME280;57291;37.520;15.106;2023-12-28T11:53:25;102404.41;;;17.12;55.09
54556;BME280;57291;37.520;15.106;2023-12-28T11:55:59;102412.91;;;17.10;55.23
54556;BME280;57291;37.520;15.106;2023-12-28T11:58:28;102395.25;;;17.17;55.42
54556;BME280;57291;37.520;15.106;2023-12-28T12:00:55;102401.22;;;17.05;55.60
54556;BME280;57291;37.520;15.106;2023-12-28T12:03:24;102402.13;;;16.81;56.02
54556;BME280;57291;37.520;15.106;2023-12-28T12:05:52;102393.75;;;16.68;56.38
54556;BME280;57291;37.520;15.106;2023-12-28T12:08:21;102394.13;;;16.61;56.92
54556;BME280;57291;37.520;15.106;2023-12-28T12:10:59;102397.91;;;16.46;57.03
54556;BME280;57291;37.520;15.106;2023-12-28T12:13:27;102386.81;;;16.32;57.52
54556;BME280;57291;37.520;15.106;2023-12-28T12:15:55;102396.38;;;16.35;57.41
54556;BME280;57291;37.520;15.106;2023-12-28T12:18:24;102384.81;;;16.38;57.76
54556;BME280;57291;37.520;15.106;2023-12-28T12:20:52;102383.81;;;16.53;57.29
54556;BME280;57291;37.520;15.106;2023-12-28T12:23:20;102379.66;;;16.55;57.10
54556;BME280;57291;37.520;15.106;2023-12-28T12:25:47;102382.09;;;16.57;56.48
54556;BME280;57291;37.520;15.106;2023-12-28T12:28:14;102376.41;;;16.72;56.62
54556;BME280;57291;37.520;15.106;2023-12-28T12:30:58;102377.63;;;16.85;56.17
54556;BME280;57291;37.520;15.106;2023-12-28T12:33:28;102376.88;;;16.98;55.72
54556;BME280;57291;37.520;15.106;2023-12-28T12:35:56;102368.78;;;16.88;56.22
54556;BME280;57291;37.520;15.106;2023-12-28T12:38:24;102366.19;;;16.78;55.95
54556;BME280;57291;37.520;15.106;2023-12-28T12:40:52;102376.09;;;16.74;56.02
54556;BME280;57291;37.520;15.106;2023-12-28T12:43:20;102366.44;;;16.57;56.47
54556;BME280;57291;37.520;15.106;2023-12-28T12:45:48;102373.22;;;16.65;56.57
54556;BME280;57291;37.520;15.106;2023-12-28T12:48:16;102376.06;;;16.79;56.25
54556;BME280;57291;37.520;15.106;2023-12-28T12:50:44;102371.16;;;16.95;55.97
54556;BME280;57291;37.520;15.106;2023-12-28T12:53:12;102363.63;;;17.00;55.49
54556;BME280;57291;37.520;15.106;2023-12-28T12:55:39;102372.84;;;17.09;55.32
54556;BME280;57291;37.520;15.106;2023-12-28T12:58:12;102363.03;;;17.03;55.28
54556;BME280;57291;37.520;15.106;2023-12-28T13:00:40;102366.78;;;16.75;55.96